PWSweather.com
Personal Weather Stations
Station Observations
KPAEXPOR2
Wellington Estates, Export, PA 15632

Wellington EstatesExport, PA 15632

Lat: 40.446, Lon: -79.592

Elevation: 1286

Station Type: PWS1000-TD

http://www.westmorelandweather.com

Latest ConditionsUpdated 9:30:00 PM EDT Wednesday, Sep 19, 2018
Currently Today's Max Today's Min Today's Average
Temperature 68.4°F20.2°C 85.9°F29.9°C 64.8°F18.2°C 72.4°F22.4°C
Dew Point 56.6°F13.7°C 66.2°F19.0°C 40.4°F4.7°C 56.5°F13.6°C
Winds Calm Calm 3.4 mph -5.5 kmh - - 1.0 mph 1.6 kmh
Wind Gusts -- 6.9 mph11.1 kmh - -
Humidity 66% 88% 21% 63%
Pressure 30.19 in1022.4 mb 30.19 in1022.4 mb 30.05 in1017.6 mb -
Hour Temp Dew Point Humidity Winds Wind Gusts Pressure Precip Precip Rate Daily Precip Total
09:30 PM 68.4°F20.2°C 56.6°F13.7°C 66% Calm Calm -- 30.19 in1022.4 mb 0.00 in0.0 mm 0.00 in0.0 mm 0.00 in0.0 mm
09:15 PM 68.6°F20.3°C 56.8°F13.8°C 66% Calm Calm -- 30.18 in1022.0 mb 0.00 in0.0 mm 0.00 in0.0 mm 0.00 in0.0 mm
09:00 PM 69.5°F20.8°C 56.8°F13.8°C 64% Calm Calm -- 30.18 in1022.0 mb 0.00 in0.0 mm 0.00 in0.0 mm 0.00 in0.0 mm
08:45 PM 70.1°F21.2°C 56.9°F13.8°C 63% Calm Calm -- 30.18 in1022.0 mb 0.00 in0.0 mm 0.00 in0.0 mm 0.00 in0.0 mm
08:30 PM 70.6°F21.4°C 56.5°F13.6°C 61% 0.9 mph NNW1.4 kmh NNW 1.6 mph2.6 kmh 30.17 in1021.7 mb 0.00 in0.0 mm 0.00 in0.0 mm 0.00 in0.0 mm
08:15 PM 71.1°F21.7°C 56.5°F13.6°C 60% 0.9 mph NW1.4 kmh NW 1.6 mph2.6 kmh 30.16 in1021.3 mb 0.00 in0.0 mm 0.00 in0.0 mm 0.00 in0.0 mm
08:00 PM 71.5°F21.9°C 56.9°F13.8°C 60% 0.1 mph NW0.2 kmh NW 1.6 mph2.6 kmh 30.16 in1021.3 mb 0.00 in0.0 mm 0.00 in0.0 mm 0.00 in0.0 mm
07:45 PM 72.2°F22.3°C 56.6°F13.7°C 58% Calm Calm -- 30.16 in1021.3 mb 0.00 in0.0 mm 0.00 in0.0 mm 0.00 in0.0 mm
07:30 PM 72.9°F22.7°C 57.3°F14.1°C 58% 0.5 mph NNW0.8 kmh NNW 1.6 mph2.6 kmh 30.15 in1021.0 mb 0.00 in0.0 mm 0.00 in0.0 mm 0.00 in0.0 mm
07:15 PM 73.3°F22.9°C 57.1°F13.9°C 57% 1.3 mph NW2.1 kmh NW 1.6 mph2.6 kmh 30.15 in1021.0 mb 0.00 in0.0 mm 0.00 in0.0 mm 0.00 in0.0 mm
07:00 PM 73.7°F23.2°C 57.5°F14.2°C 57% 0.8 mph NW1.3 kmh NW 1.6 mph2.6 kmh 30.15 in1021.0 mb 0.00 in0.0 mm 0.00 in0.0 mm 0.00 in0.0 mm
06:45 PM 74.2°F23.4°C 57.5°F14.2°C 56% 1.2 mph NW1.9 kmh NW 1.6 mph2.6 kmh 30.14 in1020.7 mb 0.00 in0.0 mm 0.00 in0.0 mm 0.00 in0.0 mm
06:30 PM 74.7°F23.7°C 57.5°F14.2°C 55% 0.5 mph NW0.8 kmh NW 1.6 mph2.6 kmh 30.14 in1020.7 mb 0.00 in0.0 mm 0.00 in0.0 mm 0.00 in0.0 mm
06:15 PM 75.5°F24.2°C 56.6°F13.7°C 52% 0.5 mph NW0.8 kmh NW 1.6 mph2.6 kmh 30.13 in1020.3 mb 0.00 in0.0 mm 0.00 in0.0 mm 0.00 in0.0 mm
06:00 PM 76.2°F24.6°C 55.6°F13.1°C 49% 0.2 mph NW0.3 kmh NW 1.6 mph2.6 kmh 30.13 in1020.3 mb 0.00 in0.0 mm 0.00 in0.0 mm 0.00 in0.0 mm
05:45 PM 76.7°F24.8°C 54.4°F12.4°C 46% 0.7 mph WNW1.1 kmh WNW 2.2 mph3.5 kmh 30.13 in1020.3 mb 0.00 in0.0 mm 0.00 in0.0 mm 0.00 in0.0 mm
05:30 PM 77.6°F25.3°C 52.7°F11.5°C 42% 1.2 mph WNW1.9 kmh WNW 3.1 mph5.0 kmh 30.12 in1020.0 mb 0.00 in0.0 mm 0.00 in0.0 mm 0.00 in0.0 mm
05:15 PM 78.3°F25.7°C 52.7°F11.5°C 41% 1.3 mph WNW2.1 kmh WNW 2.2 mph3.5 kmh 30.13 in1020.3 mb 0.00 in0.0 mm 0.00 in0.0 mm 0.00 in0.0 mm
05:00 PM 79.4°F26.3°C 50.9°F10.5°C 37% 1.4 mph SSE2.3 kmh SSE 3.1 mph5.0 kmh 30.13 in1020.3 mb 0.00 in0.0 mm 0.00 in0.0 mm 0.00 in0.0 mm
04:45 PM 79.8°F26.6°C 49.7°F9.8°C 35% 1.2 mph WSW1.9 kmh WSW 3.1 mph5.0 kmh 30.13 in1020.3 mb 0.00 in0.0 mm 0.00 in0.0 mm 0.00 in0.0 mm
04:30 PM 80.7°F27.1°C 47.2°F8.4°C 31% 1.5 mph N2.4 kmh N 2.2 mph3.5 kmh 30.12 in1020.0 mb 0.00 in0.0 mm 0.00 in0.0 mm 0.00 in0.0 mm
04:15 PM 81.6°F27.6°C 46.2°F7.9°C 29% 1.3 mph N2.1 kmh N 3.8 mph6.1 kmh 30.13 in1020.3 mb 0.00 in0.0 mm 0.00 in0.0 mm 0.00 in0.0 mm
04:00 PM 82.7°F28.2°C 46.2°F7.9°C 28% 1.4 mph NNW2.3 kmh NNW 3.1 mph5.0 kmh 30.12 in1020.0 mb 0.00 in0.0 mm 0.00 in0.0 mm 0.00 in0.0 mm
03:45 PM 84.1°F28.9°C 44.5°F6.9°C 25% 2.5 mph NNW4.0 kmh NNW 3.8 mph6.1 kmh 30.13 in1020.3 mb 0.00 in0.0 mm 0.00 in0.0 mm 0.00 in0.0 mm
03:30 PM 84.8°F29.3°C 41.7°F5.4°C 22% 1.7 mph NW2.7 kmh NW 3.8 mph6.1 kmh 30.13 in1020.3 mb 0.00 in0.0 mm 0.00 in0.0 mm 0.00 in0.0 mm
03:15 PM 85.0°F29.4°C 44.2°F6.8°C 24% 1.6 mph NW2.6 kmh NW 3.1 mph5.0 kmh 30.13 in1020.3 mb 0.00 in0.0 mm 0.00 in0.0 mm 0.00 in0.0 mm
03:00 PM 84.3°F29.1°C 43.6°F6.4°C 24% 2.9 mph NW4.7 kmh NW 6.0 mph9.7 kmh 30.13 in1020.3 mb 0.00 in0.0 mm 0.00 in0.0 mm 0.00 in0.0 mm
02:45 PM 84.1°F28.9°C 41.1°F5.1°C 22% 2.0 mph NW3.2 kmh NW 3.1 mph5.0 kmh 30.14 in1020.7 mb 0.00 in0.0 mm 0.00 in0.0 mm 0.00 in0.0 mm
02:30 PM 85.9°F29.9°C 41.4°F5.2°C 21% 2.7 mph NNW4.3 kmh NNW 5.4 mph8.7 kmh 30.14 in1020.7 mb 0.00 in0.0 mm 0.00 in0.0 mm 0.00 in0.0 mm
02:15 PM 84.6°F29.2°C 42.7°F5.9°C 23% 2.0 mph NNE3.2 kmh NNE 3.1 mph5.0 kmh 30.14 in1020.7 mb 0.00 in0.0 mm 0.00 in0.0 mm 0.00 in0.0 mm
02:00 PM 84.8°F29.3°C 44.0°F6.7°C 24% 3.0 mph SSW4.8 kmh SSW 4.5 mph7.2 kmh 30.14 in1020.7 mb 0.00 in0.0 mm 0.00 in0.0 mm 0.00 in0.0 mm
01:45 PM 84.6°F29.2°C 40.4°F4.7°C 21% 2.7 mph NE4.3 kmh NE 5.4 mph8.7 kmh 30.14 in1020.7 mb 0.00 in0.0 mm 0.00 in0.0 mm 0.00 in0.0 mm
01:30 PM 84.1°F28.9°C 44.5°F6.9°C 25% 2.0 mph S3.2 kmh S 3.8 mph6.1 kmh 30.15 in1021.0 mb 0.00 in0.0 mm 0.00 in0.0 mm 0.00 in0.0 mm
01:15 PM 83.6°F28.7°C 44.0°F6.7°C 25% 2.4 mph N3.9 kmh N 3.8 mph6.1 kmh 30.15 in1021.0 mb 0.00 in0.0 mm 0.00 in0.0 mm 0.00 in0.0 mm
01:00 PM 82.7°F28.2°C 48.9°F9.4°C 31% 2.9 mph E4.7 kmh E 6.0 mph9.7 kmh 30.15 in1021.0 mb 0.00 in0.0 mm 0.00 in0.0 mm 0.00 in0.0 mm
12:45 PM 81.9°F27.7°C 48.3°F9.1°C 31% 2.5 mph N4.0 kmh N 3.8 mph6.1 kmh 30.15 in1021.0 mb 0.00 in0.0 mm 0.00 in0.0 mm 0.00 in0.0 mm
12:30 PM 81.6°F27.6°C 52.0°F11.1°C 36% 2.8 mph SE4.5 kmh SE 4.5 mph7.2 kmh 30.14 in1020.7 mb 0.00 in0.0 mm 0.00 in0.0 mm 0.00 in0.0 mm
12:15 PM 80.1°F26.7°C 52.9°F11.6°C 39% 3.4 mph SW5.5 kmh SW 5.4 mph8.7 kmh 30.14 in1020.7 mb 0.00 in0.0 mm 0.00 in0.0 mm 0.00 in0.0 mm
12:00 PM 79.6°F26.4°C 55.8°F13.2°C 44% 2.6 mph NNW4.2 kmh NNW 5.4 mph8.7 kmh 30.15 in1021.0 mb 0.00 in0.0 mm 0.00 in0.0 mm 0.00 in0.0 mm
11:45 AM 79.4°F26.3°C 55.0°F12.8°C 43% 2.3 mph N3.7 kmh N 3.8 mph6.1 kmh 30.15 in1021.0 mb 0.00 in0.0 mm 0.00 in0.0 mm 0.00 in0.0 mm
11:30 AM 78.9°F26.1°C 56.9°F13.8°C 47% 3.2 mph N5.1 kmh N 6.9 mph11.1 kmh 30.15 in1021.0 mb 0.00 in0.0 mm 0.00 in0.0 mm 0.00 in0.0 mm
11:15 AM 78.2°F25.7°C 59.6°F15.3°C 53% 2.6 mph NE4.2 kmh NE 3.8 mph6.1 kmh 30.15 in1021.0 mb 0.00 in0.0 mm 0.00 in0.0 mm 0.00 in0.0 mm
11:00 AM 77.6°F25.3°C 62.2°F16.8°C 59% 2.2 mph E3.5 kmh E 3.8 mph6.1 kmh 30.15 in1021.0 mb 0.00 in0.0 mm 0.00 in0.0 mm 0.00 in0.0 mm
10:45 AM 76.7°F24.8°C 64.1°F17.8°C 65% 1.9 mph N3.1 kmh N 3.1 mph5.0 kmh 30.15 in1021.0 mb 0.00 in0.0 mm 0.00 in0.0 mm 0.00 in0.0 mm
10:30 AM 74.6°F23.7°C 65.3°F18.5°C 73% 2.0 mph NE3.2 kmh NE 5.4 mph8.7 kmh 30.15 in1021.0 mb 0.00 in0.0 mm 0.00 in0.0 mm 0.00 in0.0 mm
10:15 AM 72.0°F22.2°C 66.2°F19.0°C 82% 2.3 mph N3.7 kmh N 3.8 mph6.1 kmh 30.15 in1021.0 mb 0.00 in0.0 mm 0.00 in0.0 mm 0.00 in0.0 mm
10:00 AM 69.5°F20.8°C 65.1°F18.4°C 86% 1.8 mph SSE2.9 kmh SSE 3.1 mph5.0 kmh 30.14 in1020.7 mb 0.00 in0.0 mm 0.00 in0.0 mm 0.00 in0.0 mm
09:45 AM 68.3°F20.2°C 64.2°F17.9°C 87% 1.7 mph S2.7 kmh S 3.1 mph5.0 kmh 30.14 in1020.7 mb 0.00 in0.0 mm 0.00 in0.0 mm 0.00 in0.0 mm
09:30 AM 67.4°F19.7°C 63.7°F17.6°C 88% 1.1 mph S1.8 kmh S 1.6 mph2.6 kmh 30.13 in1020.3 mb 0.00 in0.0 mm 0.00 in0.0 mm 0.00 in0.0 mm
09:15 AM 67.0°F19.4°C 63.3°F17.4°C 88% 0.4 mph NE0.6 kmh NE 0.7 mph1.1 kmh 30.13 in1020.3 mb 0.00 in0.0 mm 0.00 in0.0 mm 0.00 in0.0 mm
09:00 AM 66.8°F19.3°C 63.1°F17.3°C 88% 0.7 mph S1.1 kmh S 2.2 mph3.5 kmh 30.14 in1020.7 mb 0.00 in0.0 mm 0.00 in0.0 mm 0.00 in0.0 mm
08:45 AM 66.6°F19.2°C 63.0°F17.2°C 88% Calm Calm -- 30.13 in1020.3 mb 0.00 in0.0 mm 0.00 in0.0 mm 0.00 in0.0 mm
08:30 AM 66.1°F18.9°C 62.4°F16.9°C 88% 1.7 mph SE2.7 kmh SE 3.8 mph6.1 kmh 30.13 in1020.3 mb 0.00 in0.0 mm 0.00 in0.0 mm 0.00 in0.0 mm
08:15 AM 65.4°F18.6°C 61.4°F16.3°C 87% 0.6 mph NE1.0 kmh NE 1.6 mph2.6 kmh 30.12 in1020.0 mb 0.00 in0.0 mm 0.00 in0.0 mm 0.00 in0.0 mm
08:00 AM 65.0°F18.3°C 61.1°F16.2°C 87% 0.9 mph S1.4 kmh S 3.1 mph5.0 kmh 30.12 in1020.0 mb 0.00 in0.0 mm 0.00 in0.0 mm 0.00 in0.0 mm
07:45 AM 64.8°F18.2°C 60.9°F16.1°C 87% 1.0 mph S1.6 kmh S 2.2 mph3.5 kmh 30.12 in1020.0 mb 0.00 in0.0 mm 0.00 in0.0 mm 0.00 in0.0 mm
07:30 AM 65.2°F18.4°C 61.2°F16.2°C 87% Calm Calm -- 30.12 in1020.0 mb 0.00 in0.0 mm 0.00 in0.0 mm 0.00 in0.0 mm
07:15 AM 64.8°F18.2°C 60.6°F15.9°C 86% 0.5 mph NW0.8 kmh NW 1.6 mph2.6 kmh 30.11 in1019.6 mb 0.00 in0.0 mm 0.00 in0.0 mm 0.00 in0.0 mm
07:00 AM 64.8°F18.2°C 60.6°F15.9°C 86% Calm Calm -- 30.11 in1019.6 mb 0.00 in0.0 mm 0.00 in0.0 mm 0.00 in0.0 mm
06:45 AM 64.8°F18.2°C 60.6°F15.9°C 86% 0.1 mph N0.2 kmh N 0.7 mph1.1 kmh 30.10 in1019.3 mb 0.00 in0.0 mm 0.00 in0.0 mm 0.00 in0.0 mm
06:30 AM 64.8°F18.2°C 60.6°F15.9°C 86% Calm Calm -- 30.10 in1019.3 mb 0.00 in0.0 mm 0.00 in0.0 mm 0.00 in0.0 mm
06:15 AM 65.0°F18.3°C 60.7°F15.9°C 86% Calm Calm -- 30.09 in1019.0 mb 0.00 in0.0 mm 0.00 in0.0 mm 0.00 in0.0 mm
06:00 AM 65.2°F18.4°C 60.6°F15.9°C 85% Calm Calm 0.7 mph1.1 kmh 30.09 in1019.0 mb 0.00 in0.0 mm 0.00 in0.0 mm 0.00 in0.0 mm
05:45 AM 65.2°F18.4°C 60.6°F15.9°C 85% 0.4 mph S0.6 kmh S 1.6 mph2.6 kmh 30.08 in1018.6 mb 0.00 in0.0 mm 0.00 in0.0 mm 0.00 in0.0 mm
05:30 AM 65.0°F18.3°C 60.4°F15.8°C 85% 0.1 mph S0.2 kmh S 1.6 mph2.6 kmh 30.07 in1018.3 mb 0.00 in0.0 mm 0.00 in0.0 mm 0.00 in0.0 mm
05:15 AM 65.0°F18.3°C 60.4°F15.8°C 85% 0.2 mph WSW0.3 kmh WSW 0.7 mph1.1 kmh 30.06 in1017.9 mb 0.00 in0.0 mm 0.00 in0.0 mm 0.00 in0.0 mm
05:00 AM 65.0°F18.3°C 60.1°F15.6°C 84% Calm Calm -- 30.05 in1017.6 mb 0.00 in0.0 mm 0.00 in0.0 mm 0.00 in0.0 mm
04:45 AM 65.2°F18.4°C 60.2°F15.7°C 84% Calm Calm -- 30.05 in1017.6 mb 0.00 in0.0 mm 0.00 in0.0 mm 0.00 in0.0 mm
04:30 AM 65.2°F18.4°C 60.2°F15.7°C 84% Calm Calm -- 30.06 in1017.9 mb 0.00 in0.0 mm 0.00 in0.0 mm 0.00 in0.0 mm
04:15 AM 65.2°F18.4°C 60.2°F15.7°C 84% Calm Calm -- 30.05 in1017.6 mb 0.00 in0.0 mm 0.00 in0.0 mm 0.00 in0.0 mm
04:00 AM 65.4°F18.6°C 60.1°F15.6°C 83% Calm Calm -- 30.05 in1017.6 mb 0.00 in0.0 mm 0.00 in0.0 mm 0.00 in0.0 mm
03:45 AM 65.4°F18.6°C 60.1°F15.6°C 83% Calm Calm -- 30.06 in1017.9 mb 0.00 in0.0 mm 0.00 in0.0 mm 0.00 in0.0 mm
03:30 AM 65.4°F18.6°C 60.1°F15.6°C 83% Calm Calm -- 30.05 in1017.6 mb 0.00 in0.0 mm 0.00 in0.0 mm 0.00 in0.0 mm
03:15 AM 65.6°F18.7°C 59.9°F15.5°C 82% Calm Calm -- 30.05 in1017.6 mb 0.00 in0.0 mm 0.00 in0.0 mm 0.00 in0.0 mm
03:00 AM 65.6°F18.7°C 59.9°F15.5°C 82% Calm Calm -- 30.06 in1017.9 mb 0.00 in0.0 mm 0.00 in0.0 mm 0.00 in0.0 mm
02:45 AM 66.3°F19.1°C 60.6°F15.9°C 82% Calm Calm -- 30.06 in1017.9 mb 0.00 in0.0 mm 0.00 in0.0 mm 0.00 in0.0 mm
02:30 AM 65.9°F18.8°C 60.3°F15.7°C 82% Calm Calm -- 30.06 in1017.9 mb 0.00 in0.0 mm 0.00 in0.0 mm 0.00 in0.0 mm
02:15 AM 66.1°F18.9°C 60.1°F15.6°C 81% Calm Calm -- 30.06 in1017.9 mb 0.00 in0.0 mm 0.00 in0.0 mm 0.00 in0.0 mm
02:00 AM 66.3°F19.1°C 60.3°F15.7°C 81% Calm Calm -- 30.05 in1017.6 mb 0.00 in0.0 mm 0.00 in0.0 mm 0.00 in0.0 mm
01:45 AM 66.5°F19.2°C 60.4°F15.8°C 81% Calm Calm -- 30.05 in1017.6 mb 0.00 in0.0 mm 0.00 in0.0 mm 0.00 in0.0 mm
01:30 AM 67.0°F19.4°C 61.0°F16.1°C 81% Calm Calm -- 30.05 in1017.6 mb 0.00 in0.0 mm 0.00 in0.0 mm 0.00 in0.0 mm
01:15 AM 67.0°F19.4°C 61.0°F16.1°C 81% Calm Calm -- 30.05 in1017.6 mb 0.00 in0.0 mm 0.00 in0.0 mm 0.00 in0.0 mm
01:00 AM 67.2°F19.6°C 61.2°F16.2°C 81% Calm Calm -- 30.05 in1017.6 mb 0.00 in0.0 mm 0.00 in0.0 mm 0.00 in0.0 mm
12:45 AM 67.4°F19.7°C 61.0°F16.1°C 80% Calm Calm -- 30.05 in1017.6 mb 0.00 in0.0 mm 0.00 in0.0 mm 0.00 in0.0 mm
12:30 AM 67.5°F19.7°C 61.2°F16.2°C 80% Calm Calm -- 30.05 in1017.6 mb 0.00 in0.0 mm 0.00 in0.0 mm 0.00 in0.0 mm
12:15 AM 67.9°F19.9°C 61.5°F16.4°C 80% Calm Calm -- 30.05 in1017.6 mb 0.00 in0.0 mm 0.00 in0.0 mm 0.00 in0.0 mm
12:00 AM 68.1°F20.1°C 61.3°F16.3°C 79% Calm Calm -- 30.05 in1017.6 mb 0.00 in0.0 mm 0.00 in0.0 mm 0.00 in0.0 mm